Time;durP1;ratioP1;P1;durP2;ratioP2;P2;SDS_P1;SDS_P2;PMS_P1;PMS_P2;Temp;Humidity;BMP_temperature;BMP_pressure;BME280_temperature;BME280_humidity;BME280_pressure;Samples;Min_cycle;Max_cycle;Signal;HPM_P1;HPM_P2
2021/08/04 00:00:11;;;;;;;4.35;3.80;;;18.10;99.90;;;;;;2101492;28;20510;-71
2021/08/04 00:01:11;;;;;;;4.40;4.00;;;18.10;99.90;;;;;;2096779;28;20064;-70
2021/08/04 00:02:12;;;;;;;4.90;4.15;;;18.10;99.90;;;;;;2096576;28;20688;-70
2021/08/04 00:03:12;;;;;;;6.78;4.28;;;18.10;99.90;;;;;;2096784;28;20032;-71
2021/08/04 00:04:13;;;;;;;5.38;4.40;;;18.10;99.90;;;;;;2096590;28;20035;-71
2021/08/04 00:05:14;;;;;;;4.82;4.28;;;18.10;99.90;;;;;;2104987;28;20558;-70
2021/08/04 00:06:14;;;;;;;4.20;3.80;;;18.10;99.90;;;;;;2103702;28;20536;-70
2021/08/04 00:07:16;;;;;;;6.38;4.47;;;18.10;99.90;;;;;;2096975;28;20753;-70
2021/08/04 00:08:16;;;;;;;4.03;3.60;;;18.10;99.90;;;;;;2103166;28;20016;-70
2021/08/04 00:09:17;;;;;;;4.85;4.43;;;18.10;99.90;;;;;;2105260;28;20031;-70
2021/08/04 00:10:19;;;;;;;5.50;3.78;;;18.10;99.90;;;;;;2104837;28;20472;-70
2021/08/04 00:11:19;;;;;;;4.88;4.18;;;18.10;99.90;;;;;;2103241;28;20067;-71
2021/08/04 00:12:20;;;;;;;4.53;4.05;;;18.10;99.90;;;;;;2091883;28;20032;-71
2021/08/04 00:13:20;;;;;;;4.53;4.13;;;18.10;99.90;;;;;;2098545;28;20492;-71
2021/08/04 00:14:21;;;;;;;5.88;4.80;;;18.10;99.90;;;;;;2099632;28;20024;-71
2021/08/04 00:15:21;;;;;;;6.03;4.68;;;18.10;99.90;;;;;;2089552;28;20064;-71
2021/08/04 00:16:22;;;;;;;6.28;4.55;;;18.10;99.90;;;;;;2094971;28;20383;-71
2021/08/04 00:17:23;;;;;;;5.13;4.63;;;18.10;99.90;;;;;;2092533;28;20528;-71
2021/08/04 00:18:23;;;;;;;5.38;4.72;;;18.10;99.90;;;;;;2091073;28;20651;-71
2021/08/04 00:19:24;;;;;;;4.88;4.47;;;18.10;99.90;;;;;;2097774;28;20035;-71
2021/08/04 00:20:24;;;;;;;4.18;3.88;;;18.10;99.90;;;;;;2105248;28;20032;-71
2021/08/04 00:21:26;;;;;;;4.47;4.07;;;18.10;99.90;;;;;;2100322;28;20375;-70
2021/08/04 00:22:26;;;;;;;4.57;3.45;;;18.10;99.90;;;;;;2096314;28;20032;-70
2021/08/04 00:23:27;;;;;;;3.88;3.28;;;18.10;99.90;;;;;;2094338;28;20033;-70
2021/08/04 00:24:27;;;;;;;6.63;3.72;;;18.10;99.90;;;;;;2102621;28;20028;-70
2021/08/04 00:25:28;;;;;;;3.92;3.63;;;18.10;99.90;;;;;;2103542;28;20163;-70
2021/08/04 00:26:29;;;;;;;4.78;4.13;;;18.20;99.90;;;;;;2099942;28;20029;-70
2021/08/04 00:27:30;;;;;;;4.30;3.83;;;18.10;99.90;;;;;;2100323;28;20028;-70
2021/08/04 00:28:30;;;;;;;4.45;4.05;;;18.20;99.90;;;;;;2105176;28;20136;-70
2021/08/04 00:29:31;;;;;;;5.00;3.58;;;18.20;99.90;;;;;;2104716;28;20085;-70
2021/08/04 00:30:31;;;;;;;4.85;3.90;;;18.10;99.90;;;;;;2098543;28;20480;-71
2021/08/04 00:31:32;;;;;;;5.35;4.85;;;18.10;99.90;;;;;;2104658;28;20052;-71
2021/08/04 00:32:33;;;;;;;5.78;4.10;;;18.20;99.90;;;;;;2104980;28;20024;-71
2021/08/04 00:33:33;;;;;;;4.82;3.97;;;18.10;99.90;;;;;;2098458;28;20028;-71
2021/08/04 00:34:34;;;;;;;5.10;4.55;;;18.10;99.90;;;;;;2101107;28;20514;-71
2021/08/04 00:35:34;;;;;;;4.80;4.38;;;18.10;99.90;;;;;;2096437;28;20024;-70
2021/08/04 00:36:35;;;;;;;4.85;3.95;;;18.20;99.90;;;;;;2104836;28;20483;-70
2021/08/04 00:37:35;;;;;;;5.43;4.47;;;18.10;99.90;;;;;;2103784;28;20077;-71
2021/08/04 00:38:36;;;;;;;4.43;4.03;;;18.10;99.90;;;;;;2091622;28;20033;-71
2021/08/04 00:39:36;;;;;;;5.28;4.55;;;18.20;99.90;;;;;;2096562;28;20028;-71
2021/08/04 00:40:38;;;;;;;6.63;4.60;;;18.10;99.90;;;;;;2092915;28;20027;-71
2021/08/04 00:41:40;;;;;;;4.30;4.00;;;18.10;99.90;;;;;;2091855;28;20020;-71
2021/08/04 00:42:41;;;;;;;6.15;4.55;;;18.20;99.90;;;;;;2100237;28;20113;-71
2021/08/04 00:43:42;;;;;;;4.60;4.07;;;18.20;99.90;;;;;;2092714;28;20612;-71
2021/08/04 00:44:42;;;;;;;4.32;3.92;;;18.20;99.90;;;;;;2096693;28;20039;-70
2021/08/04 00:45:43;;;;;;;5.95;3.95;;;18.10;99.90;;;;;;2090462;28;20448;-70
2021/08/04 00:46:45;;;;;;;7.10;4.65;;;18.10;99.90;;;;;;2093524;28;20028;-70
2021/08/04 00:47:45;;;;;;;6.30;4.75;;;18.10;99.90;;;;;;2100286;28;20020;-70
2021/08/04 00:48:46;;;;;;;4.38;4.00;;;18.20;99.90;;;;;;2102417;28;20595;-70
2021/08/04 00:49:47;;;;;;;4.57;3.97;;;18.10;99.90;;;;;;2104927;28;20039;-70
2021/08/04 00:50:48;;;;;;;4.28;3.78;;;18.10;99.90;;;;;;2105016;28;20046;-70
2021/08/04 00:51:48;;;;;;;5.00;4.43;;;18.20;99.90;;;;;;2102852;28;20035;-70
2021/08/04 00:52:49;;;;;;;4.53;4.13;;;18.10;99.90;;;;;;2099446;28;20078;-70
2021/08/04 00:53:49;;;;;;;6.78;4.10;;;18.20;99.90;;;;;;2092105;28;20492;-70
2021/08/04 00:54:50;;;;;;;7.20;3.85;;;18.10;99.90;;;;;;2090185;28;20041;-70
2021/08/04 00:55:52;;;;;;;5.32;3.63;;;18.10;99.90;;;;;;2095275;28;20054;-70
2021/08/04 00:56:52;;;;;;;4.68;3.65;;;18.20;99.90;;;;;;2099860;28;20076;-70
2021/08/04 00:57:53;;;;;;;7.20;3.80;;;18.20;99.90;;;;;;2095011;28;20036;-70
2021/08/04 00:58:54;;;;;;;5.35;3.50;;;18.10;99.90;;;;;;2104918;28;20035;-70
2021/08/04 00:59:55;;;;;;;3.78;3.50;;;18.10;99.90;;;;;;2104871;28;20032;-70
2021/08/04 01:01:20;;;;;;;5.13;3.85;;;18.10;99.90;;;;;;2105245;28;20024;-70
2021/08/04 01:02:31;;;;;;;4.03;3.53;;;18.10;99.90;;;;;;2083041;28;20132;-70
2021/08/04 01:03:38;;;;;;;5.90;4.07;;;18.10;99.90;;;;;;2102831;28;20024;-70
2021/08/04 01:04:45;;;;;;;4.45;3.70;;;18.10;99.90;;;;;;2104556;28;20024;-70
2021/08/04 01:05:55;;;;;;;4.35;3.42;;;18.10;99.90;;;;;;2100523;28;20028;-70
2021/08/04 01:06:55;;;;;;;3.65;2.95;;;18.10;99.90;;;;;;2091929;28;20024;-70
2021/08/04 01:08:03;;;;;;;4.03;3.50;;;18.00;99.90;;;;;;2095667;28;20036;-70
2021/08/04 01:09:06;;;;;;;4.75;3.55;;;18.10;99.90;;;;;;2089153;28;20025;-70
2021/08/04 01:10:30;;;;;;;4.57;3.78;;;18.10;99.90;;;;;;2098299;28;20052;-70
2021/08/04 01:11:39;;;;;;;3.95;3.28;;;18.10;99.90;;;;;;2088271;28;20464;-70
2021/08/04 01:13:11;;;;;;;4.93;3.70;;;18.10;99.90;;;;;;2091356;28;20049;-70
2021/08/04 01:14:14;;;;;;;5.00;4.22;;;18.00;99.90;;;;;;2104737;28;20031;-70
2021/08/04 01:15:17;;;;;;;5.63;3.75;;;18.10;99.90;;;;;;2099867;28;20039;-70
2021/08/04 01:16:25;;;;;;;4.07;3.58;;;18.10;99.90;;;;;;2092866;28;20111;-70
2021/08/04 01:17:25;;;;;;;4.40;4.00;;;18.00;99.90;;;;;;2094914;28;20141;-70
2021/08/04 01:18:32;;;;;;;5.00;4.20;;;18.10;99.90;;;;;;2098181;28;20036;-70
2021/08/04 01:19:55;;;;;;;4.50;4.10;;;18.10;99.90;;;;;;2098779;28;20067;-70
2021/08/04 01:20:56;;;;;;;4.70;3.97;;;18.00;99.90;;;;;;2091038;28;20036;-70
2021/08/04 01:22:21;;;;;;;4.97;4.25;;;18.00;99.90;;;;;;2087475;28;20468;-70
2021/08/04 01:23:43;;;;;;;5.07;3.65;;;18.10;99.90;;;;;;2088701;28;20061;-70
2021/08/04 01:24:57;;;;;;;6.50;3.53;;;18.00;99.90;;;;;;2100348;28;20059;-70
2021/08/04 01:26:07;;;;;;;6.75;3.85;;;18.00;99.90;;;;;;2097509;28;20054;-70
2021/08/04 01:27:13;;;;;;;6.47;4.50;;;18.00;99.90;;;;;;2104993;28;20025;-70
2021/08/04 01:28:38;;;;;;;4.45;4.05;;;18.00;99.90;;;;;;2098480;28;20032;-70
2021/08/04 01:29:39;;;;;;;5.25;4.10;;;18.00;99.90;;;;;;2104348;28;20475;-70
2021/08/04 01:30:40;;;;;;;5.15;3.97;;;18.00;99.90;;;;;;2099206;28;20055;-70
2021/08/04 01:31:43;;;;;;;8.70;4.72;;;18.00;99.90;;;;;;2097512;28;20028;-70
2021/08/04 01:32:44;;;;;;;5.13;3.55;;;18.00;99.90;;;;;;2099192;28;20039;-70
2021/08/04 01:33:47;;;;;;;4.57;3.63;;;18.00;99.90;;;;;;2097858;28;20034;-70
2021/08/04 01:34:50;;;;;;;4.10;3.28;;;18.00;99.90;;;;;;2102485;28;20428;-70
2021/08/04 01:35:52;;;;;;;5.35;4.25;;;18.00;99.90;;;;;;2101796;28;20067;-70
2021/08/04 01:36:54;;;;;;;4.97;4.22;;;18.00;99.90;;;;;;2104512;28;20031;-70
2021/08/04 01:37:55;;;;;;;8.80;5.00;;;18.00;99.90;;;;;;2104635;28;20024;-70
2021/08/04 01:38:58;;;;;;;4.03;3.67;;;18.00;99.90;;;;;;2102196;28;20021;-70
2021/08/04 01:40:00;;;;;;;4.70;4.05;;;18.10;99.90;;;;;;2090389;28;20115;-70
2021/08/04 01:41:01;;;;;;;6.90;4.47;;;18.00;99.90;;;;;;2089356;28;20035;-70
2021/08/04 01:42:04;;;;;;;5.43;3.97;;;18.00;99.90;;;;;;2090014;28;20119;-70
2021/08/04 01:43:04;;;;;;;7.68;4.22;;;18.00;99.90;;;;;;2095647;28;20099;-70
2021/08/04 01:44:06;;;;;;;5.13;4.28;;;18.00;99.90;;;;;;2095750;28;20024;-70
2021/08/04 01:45:07;;;;;;;4.38;3.97;;;18.00;99.90;;;;;;2092879;28;20029;-70
2021/08/04 01:46:11;;;;;;;7.72;4.45;;;18.00;99.90;;;;;;2096714;28;20032;-70
2021/08/04 01:47:12;;;;;;;5.60;4.03;;;18.00;99.90;;;;;;2100493;28;20356;-70
2021/08/04 01:48:13;;;;;;;4.82;4.43;;;18.00;99.90;;;;;;2095944;28;20024;-70
2021/08/04 01:49:15;;;;;;;4.90;3.88;;;18.00;99.90;;;;;;2096315;28;20062;-70
2021/08/04 01:50:16;;;;;;;5.13;4.28;;;18.00;99.90;;;;;;2098164;28;20387;-70
2021/08/04 01:51:17;;;;;;;4.72;4.32;;;18.00;99.90;;;;;;2095713;28;20387;-70
2021/08/04 01:52:17;;;;;;;5.10;3.80;;;18.00;99.90;;;;;;2095711;28;20131;-70
2021/08/04 01:53:19;;;;;;;3.88;3.58;;;18.00;99.90;;;;;;2093411;28;20035;-70
2021/08/04 01:54:20;;;;;;;4.10;3.70;;;18.00;99.90;;;;;;2091193;28;20021;-70
2021/08/04 01:55:20;;;;;;;7.25;4.32;;;18.00;99.90;;;;;;2101389;28;20052;-70
2021/08/04 01:56:21;;;;;;;5.88;4.20;;;18.00;99.90;;;;;;2099336;28;20035;-70
2021/08/04 01:57:22;;;;;;;5.10;3.92;;;18.00;99.90;;;;;;2094977;28;20480;-70
2021/08/04 01:58:22;;;;;;;4.38;3.55;;;18.00;99.90;;;;;;2097695;28;20027;-70
2021/08/04 01:59:26;;;;;;;5.82;3.60;;;18.00;99.90;;;;;;2103795;28;20027;-70
2021/08/04 02:00:27;;;;;;;5.80;4.13;;;18.00;99.90;;;;;;2094872;28;20047;-70
2021/08/04 02:01:28;;;;;;;4.57;4.10;;;18.00;99.90;;;;;;2091876;28;20055;-70
2021/08/04 02:02:28;;;;;;;5.03;4.50;;;18.00;99.90;;;;;;2096428;28;20028;-70
2021/08/04 02:03:29;;;;;;;5.00;4.53;;;18.00;99.90;;;;;;2098444;28;20036;-70
2021/08/04 02:04:29;;;;;;;10.20;4.70;;;18.00;99.90;;;;;;2093599;28;20041;-70
2021/08/04 02:05:30;;;;;;;5.72;4.80;;;18.00;99.90;;;;;;2105882;28;20103;-70
2021/08/04 02:06:38;;;;;;;5.15;4.10;;;18.00;99.90;;;;;;2104903;28;20051;-70
2021/08/04 02:07:59;;;;;;;16.90;5.00;;;18.00;99.90;;;;;;2103711;28;20043;-70
2021/08/04 02:09:12;;;;;;;5.30;4.38;;;18.00;99.90;;;;;;2097407;28;20028;-70
2021/08/04 02:10:19;;;;;;;7.15;4.70;;;18.00;99.90;;;;;;2089626;28;20065;-70
2021/08/04 02:11:37;;;;;;;4.93;4.20;;;17.90;99.90;;;;;;2098449;28;20021;-70
2021/08/04 02:12:45;;;;;;;5.03;4.53;;;17.90;99.90;;;;;;2101574;28;20028;-70
2021/08/04 02:13:55;;;;;;;6.90;4.70;;;17.90;99.90;;;;;;2100974;28;20048;-70
2021/08/04 02:15:03;;;;;;;4.40;4.00;;;17.90;99.90;;;;;;2100684;28;20479;-70
2021/08/04 02:16:18;;;;;;;6.90;4.80;;;17.90;99.90;;;;;;2097444;28;20021;-70
2021/08/04 02:17:33;;;;;;;5.07;4.57;;;17.90;99.90;;;;;;2096313;28;20029;-70
2021/08/04 02:18:34;;;;;;;6.82;5.10;;;17.90;99.90;;;;;;2100147;28;20101;-70
2021/08/04 02:19:56;;;;;;;5.25;4.75;;;17.90;99.90;;;;;;2104839;28;20056;-70
2021/08/04 02:21:01;;;;;;;4.53;4.07;;;17.90;99.90;;;;;;2093995;28;20033;-70
2021/08/04 02:22:07;;;;;;;6.15;4.55;;;17.90;99.90;;;;;;2090409;28;20024;-70
2021/08/04 02:23:12;;;;;;;7.53;4.63;;;17.90;99.90;;;;;;2106706;28;20043;-70
2021/08/04 02:24:16;;;;;;;5.70;4.68;;;17.90;99.90;;;;;;2107673;28;20337;-70
2021/08/04 02:25:49;;;;;;;5.32;4.75;;;17.90;99.90;;;;;;2097901;28;20112;-70
2021/08/04 02:26:52;;;;;;;5.15;4.05;;;17.80;99.90;;;;;;2091293;28;20041;-70
2021/08/04 02:27:54;;;;;;;5.95;4.43;;;17.80;99.90;;;;;;2095318;28;20051;-70
2021/08/04 02:28:57;;;;;;;5.93;5.07;;;17.80;99.90;;;;;;2096175;28;20036;-70
2021/08/04 02:30:00;;;;;;;5.03;4.25;;;17.90;99.90;;;;;;2104052;28;20030;-70
2021/08/04 02:31:02;;;;;;;7.07;4.50;;;17.90;99.90;;;;;;2103720;28;20064;-70
2021/08/04 02:32:04;;;;;;;4.70;4.30;;;17.90;99.90;;;;;;2106786;28;20028;-70
2021/08/04 02:33:06;;;;;;;6.50;4.75;;;17.80;99.90;;;;;;2106912;28;20016;-70
2021/08/04 02:34:07;;;;;;;7.32;4.70;;;17.80;99.90;;;;;;2107142;28;20016;-70
2021/08/04 02:35:08;;;;;;;4.68;4.10;;;17.90;99.90;;;;;;2095725;28;20044;-70
2021/08/04 02:36:09;;;;;;;4.97;4.43;;;17.90;99.90;;;;;;2107160;28;20108;-70
2021/08/04 02:37:09;;;;;;;8.57;4.50;;;17.90;99.90;;;;;;2107374;28;20272;-70
2021/08/04 02:38:10;;;;;;;6.47;4.93;;;17.80;99.90;;;;;;2107165;28;20107;-70
2021/08/04 02:39:11;;;;;;;5.15;4.60;;;17.80;99.90;;;;;;2103191;28;20020;-70
2021/08/04 02:40:13;;;;;;;5.28;4.88;;;17.80;99.90;;;;;;2095415;28;20033;-70
2021/08/04 02:41:15;;;;;;;5.38;4.88;;;17.80;99.90;;;;;;2098913;28;20017;-70
2021/08/04 02:42:15;;;;;;;5.68;4.97;;;17.80;99.90;;;;;;2104267;28;20383;-70
2021/08/04 02:43:19;;;;;;;5.32;4.82;;;17.80;99.90;;;;;;2093547;28;20037;-70
2021/08/04 02:44:21;;;;;;;4.93;4.43;;;17.80;99.90;;;;;;2098808;28;20359;-70
2021/08/04 02:45:22;;;;;;;5.05;4.65;;;17.80;99.90;;;;;;2098974;28;20082;-70
2021/08/04 02:46:24;;;;;;;5.15;4.65;;;17.80;99.90;;;;;;2090744;28;20071;-70
2021/08/04 02:47:25;;;;;;;5.50;4.30;;;17.80;99.90;;;;;;2103661;28;20039;-70
2021/08/04 02:48:26;;;;;;;5.53;5.07;;;17.80;99.90;;;;;;2098909;28;20032;-70
2021/08/04 02:49:27;;;;;;;8.20;5.38;;;17.80;99.90;;;;;;2094268;28;20511;-70
2021/08/04 02:50:31;;;;;;;5.53;3.90;;;17.80;99.90;;;;;;2096861;28;20387;-70
2021/08/04 02:51:32;;;;;;;4.32;4.00;;;17.80;99.90;;;;;;2099774;28;20021;-70
2021/08/04 02:52:34;;;;;;;4.03;3.70;;;17.70;99.90;;;;;;2106917;28;20024;-70
2021/08/04 02:53:34;;;;;;;4.65;4.18;;;17.70;99.90;;;;;;2107242;28;20403;-70
2021/08/04 02:54:36;;;;;;;6.47;4.30;;;17.70;99.90;;;;;;2106522;28;20032;-70
2021/08/04 02:55:37;;;;;;;5.35;4.85;;;17.70;99.90;;;;;;2098445;28;20036;-70
2021/08/04 02:56:38;;;;;;;4.63;4.22;;;17.70;99.90;;;;;;2099450;28;20032;-70
2021/08/04 02:57:38;;;;;;;5.45;4.40;;;17.70;99.90;;;;;;2107229;28;20535;-70
2021/08/04 02:58:39;;;;;;;4.93;4.43;;;17.70;99.90;;;;;;2107073;28;20020;-70
2021/08/04 02:59:40;;;;;;;5.90;5.22;;;17.70;99.90;;;;;;2097698;28;20169;-70
2021/08/04 03:00:40;;;;;;;5.32;4.57;;;17.60;99.90;;;;;;2096392;28;20040;-70
2021/08/04 03:01:41;;;;;;;5.22;4.78;;;17.70;99.90;;;;;;2103718;28;20032;-70
2021/08/04 03:02:41;;;;;;;5.50;4.32;;;17.60;99.90;;;;;;2105651;28;20329;-70
2021/08/04 03:03:42;;;;;;;5.00;4.55;;;17.60;99.90;;;;;;2106219;28;20099;-70
2021/08/04 03:04:43;;;;;;;6.10;5.22;;;17.60;99.90;;;;;;2105348;28;20043;-70
2021/08/04 03:05:43;;;;;;;5.30;4.50;;;17.60;99.90;;;;;;2095950;28;20039;-70
2021/08/04 03:06:44;;;;;;;7.25;5.38;;;17.60;99.90;;;;;;2098798;28;20025;-70
2021/08/04 03:07:44;;;;;;;6.30;4.97;;;17.60;99.90;;;;;;2095675;28;20456;-70
2021/08/04 03:08:45;;;;;;;5.75;4.80;;;17.60;99.90;;;;;;2089462;28;20025;-70
2021/08/04 03:09:45;;;;;;;5.32;4.90;;;17.60;99.90;;;;;;2094705;28;20040;-70
2021/08/04 03:10:46;;;;;;;5.15;4.75;;;17.60;99.90;;;;;;2097766;28;21267;-70
2021/08/04 03:11:47;;;;;;;7.40;5.35;;;17.60;99.90;;;;;;2104650;28;20032;-70
2021/08/04 03:12:47;;;;;;;5.63;4.70;;;17.50;99.90;;;;;;2101889;28;20036;-70
2021/08/04 03:13:48;;;;;;;4.65;4.22;;;17.50;99.90;;;;;;2089130;28;20381;-70
2021/08/04 03:14:48;;;;;;;6.60;4.80;;;17.50;99.90;;;;;;2100166;28;20027;-70
2021/08/04 03:15:49;;;;;;;7.10;4.43;;;17.50;99.90;;;;;;2097417;28;20024;-70
2021/08/04 03:16:49;;;;;;;5.63;3.78;;;17.50;99.90;;;;;;2097540;28;20445;-70
2021/08/04 03:17:50;;;;;;;5.55;5.00;;;17.50;99.90;;;;;;2098996;28;20617;-70
2021/08/04 03:18:51;;;;;;;4.88;4.28;;;17.50;99.90;;;;;;2097101;28;20090;-70
2021/08/04 03:19:51;;;;;;;7.20;4.82;;;17.50;99.90;;;;;;2090493;28;20066;-70
2021/08/04 03:20:52;;;;;;;5.85;5.10;;;17.40;99.90;;;;;;2098598;28;20474;-70
2021/08/04 03:21:52;;;;;;;5.75;5.15;;;17.50;99.90;;;;;;2097259;28;20031;-70
2021/08/04 03:22:53;;;;;;;8.95;5.18;;;17.50;99.90;;;;;;2097022;28;20051;-70
2021/08/04 03:23:54;;;;;;;5.95;5.03;;;17.50;99.90;;;;;;2097142;28;20064;-70
2021/08/04 03:24:54;;;;;;;5.68;4.55;;;17.50;99.90;;;;;;2097483;28;20024;-70
2021/08/04 03:25:55;;;;;;;5.60;5.10;;;17.40;99.90;;;;;;2100084;28;20020;-70
2021/08/04 03:26:56;;;;;;;6.03;5.28;;;17.40;99.90;;;;;;2105757;28;20025;-70
2021/08/04 03:27:56;;;;;;;5.57;4.55;;;17.40;99.90;;;;;;2105433;28;20032;-70
2021/08/04 03:28:57;;;;;;;5.35;4.60;;;17.40;99.90;;;;;;2105857;28;20234;-70
2021/08/04 03:29:57;;;;;;;5.70;4.93;;;17.50;99.90;;;;;;2104411;28;20024;-70
2021/08/04 03:30:58;;;;;;;5.53;4.53;;;17.40;99.90;;;;;;2102977;28;20111;-70
2021/08/04 03:31:59;;;;;;;4.93;4.35;;;17.40;99.90;;;;;;2105406;28;20059;-70
2021/08/04 03:32:59;;;;;;;7.22;4.28;;;17.40;99.90;;;;;;2100918;28;20027;-70
2021/08/04 03:34:00;;;;;;;6.13;4.72;;;17.40;99.90;;;;;;2098253;28;20025;-70
2021/08/04 03:35:00;;;;;;;4.95;4.47;;;17.40;99.90;;;;;;2097145;28;20050;-70
2021/08/04 03:36:01;;;;;;;5.40;4.85;;;17.40;99.90;;;;;;2104858;28;20020;-70
2021/08/04 03:37:02;;;;;;;5.82;5.32;;;17.40;99.90;;;;;;2098111;28;20213;-70
2021/08/04 03:38:02;;;;;;;5.30;4.80;;;17.40;99.90;;;;;;2093143;28;20064;-70
2021/08/04 03:39:03;;;;;;;5.72;4.63;;;17.40;99.90;;;;;;2098907;28;20085;-71
2021/08/04 03:40:05;;;;;;;5.47;4.97;;;17.40;99.90;;;;;;2096621;28;20028;-70
2021/08/04 03:41:06;;;;;;;9.55;5.47;;;17.40;99.90;;;;;;2096339;28;20119;-70
2021/08/04 03:42:07;;;;;;;5.20;4.68;;;17.40;99.90;;;;;;2096063;28;20037;-70
2021/08/04 03:43:07;;;;;;;4.93;4.43;;;17.40;99.90;;;;;;2096403;28;20064;-70
2021/08/04 03:44:08;;;;;;;4.82;4.15;;;17.40;99.90;;;;;;2097434;28;20494;-70
2021/08/04 03:45:09;;;;;;;4.95;4.28;;;17.40;99.90;;;;;;2091473;28;20021;-70
2021/08/04 03:46:09;;;;;;;5.57;4.70;;;17.40;99.90;;;;;;2097198;28;20229;-70
2021/08/04 03:47:10;;;;;;;6.85;4.00;;;17.40;99.90;;;;;;2095300;28;20031;-71
2021/08/04 03:48:10;;;;;;;5.45;4.70;;;17.40;99.90;;;;;;2088701;28;20063;-70
2021/08/04 03:49:11;;;;;;;4.97;4.20;;;17.40;99.90;;;;;;2088520;28;20388;-70
2021/08/04 03:50:11;;;;;;;6.78;4.22;;;17.40;99.90;;;;;;2092722;28;20032;-70
2021/08/04 03:51:12;;;;;;;5.03;4.13;;;17.40;99.90;;;;;;2088567;28;20066;-70
2021/08/04 03:52:13;;;;;;;5.40;4.93;;;17.40;99.90;;;;;;2103636;28;20013;-70
2021/08/04 03:53:13;;;;;;;5.82;4.75;;;17.40;99.90;;;;;;2095492;28;20089;-70
2021/08/04 03:54:14;;;;;;;5.68;5.07;;;17.40;99.90;;;;;;2097030;28;20036;-70
2021/08/04 03:55:14;;;;;;;5.95;4.45;;;17.40;99.90;;;;;;2102681;28;20240;-70
2021/08/04 03:56:15;;;;;;;7.55;5.80;;;17.40;99.90;;;;;;2101273;28;20020;-70
2021/08/04 03:57:16;;;;;;;4.95;4.50;;;17.40;99.90;;;;;;2096295;28;20025;-70
2021/08/04 03:58:16;;;;;;;4.80;4.40;;;17.40;99.90;;;;;;2099074;28;20520;-70
2021/08/04 03:59:17;;;;;;;6.22;5.63;;;17.30;99.90;;;;;;2105483;28;20027;-70
2021/08/04 04:00:18;;;;;;;4.72;4.32;;;17.40;99.90;;;;;;2102731;28;20079;-70
2021/08/04 04:01:18;;;;;;;6.93;4.07;;;17.40;99.90;;;;;;2099148;28;20106;-70
2021/08/04 04:02:19;;;;;;;6.47;4.97;;;17.30;99.90;;;;;;2105396;28;20027;-70
2021/08/04 04:03:19;;;;;;;5.63;4.35;;;17.30;99.90;;;;;;2103319;28;20051;-70
2021/08/04 04:04:20;;;;;;;5.28;3.92;;;17.30;99.90;;;;;;2105041;28;20027;-70
2021/08/04 04:05:21;;;;;;;5.55;4.50;;;17.30;99.90;;;;;;2099855;28;20730;-70
2021/08/04 04:06:21;;;;;;;5.30;4.45;;;17.30;99.90;;;;;;2092748;28;20098;-70
2021/08/04 04:07:22;;;;;;;7.00;4.43;;;17.30;99.90;;;;;;2096928;28;20031;-70
2021/08/04 04:08:23;;;;;;;4.97;4.28;;;17.30;99.90;;;;;;2104784;28;20414;-70
2021/08/04 04:09:23;;;;;;;5.00;3.72;;;17.30;99.90;;;;;;2097201;28;20025;-70
2021/08/04 04:10:24;;;;;;;5.40;4.95;;;17.30;99.90;;;;;;2096597;28;20029;-70
2021/08/04 04:11:24;;;;;;;4.68;4.25;;;17.30;99.90;;;;;;2102232;28;20161;-70
2021/08/04 04:12:25;;;;;;;4.97;4.50;;;17.30;99.90;;;;;;2095216;28;20033;-70
2021/08/04 04:13:25;;;;;;;5.80;5.20;;;17.30;99.90;;;;;;2091295;28;20021;-70
2021/08/04 04:14:26;;;;;;;5.93;4.75;;;17.20;99.90;;;;;;2094690;28;20029;-70
2021/08/04 04:15:27;;;;;;;6.88;4.78;;;17.30;99.90;;;;;;2090674;28;20040;-70
2021/08/04 04:16:27;;;;;;;4.45;4.05;;;17.20;99.90;;;;;;2104246;28;20026;-70
2021/08/04 04:17:28;;;;;;;4.68;4.20;;;17.20;99.90;;;;;;2104399;28;20115;-70
2021/08/04 04:18:28;;;;;;;5.35;4.60;;;17.20;99.90;;;;;;2096380;28;20081;-70
2021/08/04 04:19:29;;;;;;;5.47;4.22;;;17.20;99.90;;;;;;2101158;28;20094;-70
2021/08/04 04:20:29;;;;;;;4.90;4.45;;;17.20;99.90;;;;;;2102049;28;20524;-70
2021/08/04 04:21:31;;;;;;;5.40;4.13;;;17.20;99.90;;;;;;2100157;28;20036;-70
2021/08/04 04:22:32;;;;;;;4.53;4.13;;;17.20;99.90;;;;;;2093950;28;20062;-70
2021/08/04 04:23:32;;;;;;;4.78;4.30;;;17.20;99.90;;;;;;2087837;28;20091;-70
2021/08/04 04:24:33;;;;;;;8.23;4.82;;;17.20;99.90;;;;;;2102764;28;20107;-70
2021/08/04 04:25:34;;;;;;;5.63;4.80;;;17.20;99.90;;;;;;2101037;28;20028;-71
2021/08/04 04:26:34;;;;;;;4.85;4.38;;;17.20;99.90;;;;;;2105210;28;20024;-70
2021/08/04 04:27:35;;;;;;;6.97;4.75;;;17.20;99.90;;;;;;2100778;28;20036;-70
2021/08/04 04:28:35;;;;;;;6.00;4.80;;;17.20;99.90;;;;;;2097186;28;20364;-70
2021/08/04 04:29:37;;;;;;;6.25;4.25;;;17.10;99.90;;;;;;2105212;28;20032;-70
2021/08/04 04:30:38;;;;;;;4.53;3.97;;;17.10;99.90;;;;;;2100190;28;20028;-70
2021/08/04 04:31:38;;;;;;;4.95;4.45;;;17.10;99.90;;;;;;2096825;28;20502;-70
2021/08/04 04:32:39;;;;;;;5.00;4.50;;;17.10;99.90;;;;;;2102193;28;20012;-71
2021/08/04 04:33:40;;;;;;;4.60;4.20;;;17.10;99.90;;;;;;2093119;28;20040;-70
2021/08/04 04:34:40;;;;;;;5.32;4.75;;;17.10;99.90;;;;;;2098222;28;20030;-70
2021/08/04 04:35:41;;;;;;;5.07;4.57;;;17.10;99.90;;;;;;2102593;28;20502;-70
2021/08/04 04:36:41;;;;;;;5.47;4.50;;;17.10;99.90;;;;;;2104831;28;20024;-70
2021/08/04 04:37:42;;;;;;;5.40;4.93;;;17.10;99.90;;;;;;2105125;28;20020;-70
2021/08/04 04:38:43;;;;;;;5.78;4.50;;;17.10;99.90;;;;;;2104184;28;20028;-70
2021/08/04 04:39:43;;;;;;;5.47;4.88;;;17.10;99.90;;;;;;2094570;28;20017;-70
2021/08/04 04:40:45;;;;;;;4.90;4.50;;;17.10;99.90;;;;;;2095133;28;20081;-70
2021/08/04 04:41:45;;;;;;;6.70;4.82;;;17.10;99.90;;;;;;2094878;28;20029;-70
2021/08/04 04:42:46;;;;;;;6.85;4.47;;;17.10;99.90;;;;;;2096102;28;20044;-70
2021/08/04 04:43:46;;;;;;;4.25;3.78;;;17.10;99.90;;;;;;2094058;28;20056;-70
2021/08/04 04:44:47;;;;;;;4.25;3.67;;;17.10;99.90;;;;;;2079305;28;20574;-70
2021/08/04 04:45:48;;;;;;;5.15;4.72;;;17.20;99.90;;;;;;2100217;28;20035;-70
2021/08/04 04:46:48;;;;;;;6.15;4.50;;;17.10;99.90;;;;;;2098932;28;20529;-70
2021/08/04 04:47:49;;;;;;;6.97;5.13;;;17.10;99.90;;;;;;2097640;28;20024;-70
2021/08/04 04:48:49;;;;;;;7.15;5.75;;;17.10;99.90;;;;;;2103267;28;20051;-70
2021/08/04 04:49:50;;;;;;;7.03;5.60;;;17.10;99.90;;;;;;2099978;28;20028;-70
2021/08/04 04:50:50;;;;;;;5.63;5.18;;;17.10;99.90;;;;;;2091464;28;20064;-70
2021/08/04 04:51:51;;;;;;;5.57;4.55;;;17.10;99.90;;;;;;2099161;28;20020;-70
2021/08/04 04:52:51;;;;;;;6.95;4.65;;;17.10;99.90;;;;;;2101428;28;20025;-70
2021/08/04 04:53:52;;;;;;;5.72;5.22;;;17.10;99.90;;;;;;2101260;28;20467;-70
2021/08/04 04:54:52;;;;;;;6.13;5.53;;;17.10;99.90;;;;;;2099368;28;20035;-70
2021/08/04 04:55:54;;;;;;;6.25;5.65;;;17.10;99.90;;;;;;2103637;28;20030;-70
2021/08/04 04:56:55;;;;;;;5.75;4.97;;;17.10;99.90;;;;;;2096860;28;20033;-70
2021/08/04 04:57:55;;;;;;;5.95;4.70;;;17.10;99.90;;;;;;2096490;28;20009;-70
2021/08/04 04:58:56;;;;;;;6.05;4.68;;;17.10;99.90;;;;;;2090136;28;20441;-70
2021/08/04 04:59:56;;;;;;;9.13;5.60;;;17.10;99.90;;;;;;2093006;28;20024;-70
2021/08/04 05:00:57;;;;;;;5.53;4.70;;;17.10;99.90;;;;;;2093233;28;20748;-70
2021/08/04 05:01:57;;;;;;;4.65;4.25;;;17.10;99.90;;;;;;2098125;28;20029;-70
2021/08/04 05:02:58;;;;;;;5.60;5.10;;;17.20;99.90;;;;;;2094939;28;20376;-70
2021/08/04 05:03:59;;;;;;;5.85;5.35;;;17.20;99.90;;;;;;2096365;28;20028;-70
2021/08/04 05:04:59;;;;;;;8.13;5.15;;;17.20;99.90;;;;;;2097417;28;20028;-70
2021/08/04 05:06:00;;;;;;;7.22;4.93;;;17.20;99.90;;;;;;2095346;28;20032;-70
2021/08/04 05:07:00;;;;;;;6.63;5.28;;;17.20;99.90;;;;;;2095436;28;20024;-70
2021/08/04 05:08:01;;;;;;;8.27;5.82;;;17.20;99.90;;;;;;2096875;28;20063;-70
2021/08/04 05:09:02;;;;;;;5.95;4.75;;;17.20;99.90;;;;;;2096330;28;20031;-70
2021/08/04 05:10:03;;;;;;;5.57;5.10;;;17.20;99.90;;;;;;2095874;28;20032;-70
2021/08/04 05:11:04;;;;;;;6.80;5.97;;;17.30;99.90;;;;;;2092958;28;20066;-70
2021/08/04 05:12:05;;;;;;;6.28;5.60;;;17.30;99.90;;;;;;2095811;28;20029;-70
2021/08/04 05:13:05;;;;;;;6.88;6.05;;;17.30;99.90;;;;;;2095072;28;20051;-70
2021/08/04 05:14:06;;;;;;;7.43;5.88;;;17.30;99.90;;;;;;2096247;28;20077;-70
2021/08/04 05:15:07;;;;;;;7.88;5.47;;;17.30;99.90;;;;;;2094046;28;20082;-70
2021/08/04 05:16:07;;;;;;;7.88;6.13;;;17.30;99.90;;;;;;2090521;28;20082;-71
2021/08/04 05:17:12;;;;;;;6.07;5.57;;;17.30;99.90;;;;;;2087719;28;20079;-70
2021/08/04 05:18:13;;;;;;;6.60;6.00;;;17.30;99.90;;;;;;2088332;28;20112;-70
2021/08/04 05:19:13;;;;;;;8.20;6.35;;;17.30;99.90;;;;;;2095522;28;20019;-70
2021/08/04 05:20:14;;;;;;;7.72;7.03;;;17.40;99.90;;;;;;2104509;28;20085;-70
2021/08/04 05:21:15;;;;;;;9.93;8.15;;;17.40;99.90;;;;;;2100650;28;20024;-70
2021/08/04 05:22:15;;;;;;;9.00;8.15;;;17.40;99.90;;;;;;2096233;28;20028;-70
2021/08/04 05:23:16;;;;;;;8.43;7.35;;;17.40;99.90;;;;;;2091073;28;20764;-70
2021/08/04 05:24:17;;;;;;;9.07;7.45;;;17.40;99.90;;;;;;2095582;28;20504;-70